Time;durP1;ratioP1;P1;durP2;ratioP2;P2;SDS_P1;SDS_P2;PMS_P1;PMS_P2;Temp;Humidity;BMP_temperature;BMP_pressure;BME280_temperature;BME280_humidity;BME280_pressure;Samples;Min_cycle;Max_cycle;Signal;HPM_P1;HPM_P2
2022/06/08 00:01:34;;;;;;;24.33;2.78;;;;;;;23.62;49.96;99010.81;7312014;19;129865;-40
2022/06/08 00:04:01;;;;;;;29.10;2.85;;;;;;;23.63;49.04;99012.47;7312493;19;130661;-39
2022/06/08 00:06:27;;;;;;;12.35;1.70;;;;;;;23.77;50.40;99009.16;7312534;19;131657;-40
2022/06/08 00:08:52;;;;;;;51.07;4.40;;;;;;;23.91;51.16;99013.72;7313052;19;129761;-40
2022/06/08 00:11:18;;;;;;;18.00;2.00;;;;;;;23.96;51.37;99019.28;7309804;19;130674;-39
2022/06/08 00:13:44;;;;;;;30.30;2.90;;;;;;;23.98;51.78;99012.06;7313001;19;129845;-39
2022/06/08 00:16:10;;;;;;;38.13;3.60;;;;;;;24.02;51.50;99008.13;7310700;19;130265;-40
2022/06/08 00:18:35;;;;;;;20.77;2.40;;;;;;;24.04;51.62;99007.97;7309396;19;128995;-39
2022/06/08 00:21:01;;;;;;;57.37;5.10;;;;;;;24.08;52.31;99007.44;7310426;19;129536;-41
2022/06/08 00:23:26;;;;;;;24.60;2.63;;;;;;;24.10;52.22;99008.09;7312104;19;128967;-40
2022/06/08 00:25:52;;;;;;;31.77;3.13;;;;;;;24.14;52.12;99004.16;7312228;19;129528;-40
2022/06/08 00:28:18;;;;;;;44.30;4.00;;;;;;;24.13;52.44;98999.88;7312330;19;129489;-39
2022/06/08 00:30:44;;;;;;;40.05;4.05;;;;;;;24.12;52.48;98987.75;7311752;19;129557;-40
2022/06/08 00:33:09;;;;;;;46.30;4.18;;;;;;;24.12;52.00;98990.38;7311215;19;129706;-42
2022/06/08 00:35:37;;;;;;;37.38;3.67;;;;;;;24.12;53.63;98995.63;7311627;19;131889;-40
2022/06/08 00:38:03;;;;;;;36.15;3.38;;;;;;;24.12;52.39;99000.88;7309333;19;130303;-39
2022/06/08 00:41:12;;;;;;;49.17;4.47;;;;;;;23.63;49.72;99001.97;7311335;19;129716;-41
2022/06/08 00:43:38;;;;;;;21.08;2.42;;;;;;;23.62;49.70;99000.31;7309629;19;130774;-39
2022/06/08 00:46:05;;;;;;;32.03;3.25;;;;;;;23.64;49.70;99003.59;7309590;19;129866;-41
2022/06/08 00:48:37;;;;;;;50.50;4.63;;;;;;;23.72;50.83;98979.13;7312027;19;130363;-40
2022/06/08 00:51:03;;;;;;;28.33;2.78;;;;;;;23.90;51.58;98988.44;7308536;19;129811;-39
2022/06/08 00:53:40;;;;;;;30.88;2.75;;;;;;;23.94;53.11;98979.25;7311521;19;130191;-40
2022/06/08 00:56:10;;;;;;;28.33;2.72;;;;;;;23.99;52.36;98981.38;7312585;19;130466;-39
2022/06/08 00:58:37;;;;;;;34.63;3.75;;;;;;;24.02;52.74;98997.63;7308229;19;129707;-39
2022/06/08 01:01:03;;;;;;;30.63;2.78;;;;;;;24.05;52.34;98991.19;7311736;19;130160;-39
2022/06/08 01:03:29;;;;;;;30.70;2.95;;;;;;;24.11;52.43;98987.91;7311330;19;129615;-39
2022/06/08 01:06:03;;;;;;;23.77;2.37;;;;;;;24.11;53.87;98986.09;7309321;19;131140;-40
2022/06/08 01:08:40;;;;;;;27.85;2.63;;;;;;;24.12;54.05;98987.75;7312070;19;129000;-39
2022/06/08 01:11:20;;;;;;;37.63;3.47;;;;;;;24.14;54.18;98984.94;7309174;19;128911;-41
2022/06/08 01:13:46;;;;;;;59.13;5.50;;;;;;;24.12;52.76;98986.91;7308199;19;130225;-41
2022/06/08 01:16:12;;;;;;;33.83;3.20;;;;;;;24.11;53.30;98980.84;7310627;19;131017;-39
2022/06/08 01:18:38;;;;;;;29.00;2.95;;;;;;;24.11;53.74;98982.66;7309757;19;130437;-39
2022/06/08 01:21:22;;;;;;;27.80;2.90;;;;;;;23.81;50.43;98984.22;7309145;19;129012;-40
2022/06/08 01:24:00;;;;;;;31.38;3.17;;;;;;;23.64;50.05;98981.78;7308788;19;130916;-41
2022/06/08 01:26:28;;;;;;;24.88;2.58;;;;;;;23.62;49.89;98984.56;7311028;19;130863;-40
2022/06/08 01:29:12;;;;;;;37.92;3.47;;;;;;;23.66;48.94;98988.50;7309928;19;129201;-40
2022/06/08 01:32:06;;;;;;;30.27;2.95;;;;;;;23.86;52.98;98975.81;7309145;19;129000;-40
2022/06/08 01:34:47;;;;;;;41.72;4.03;;;;;;;23.93;53.91;98985.47;7306539;19;131466;-40
2022/06/08 01:37:34;;;;;;;37.75;3.70;;;;;;;23.97;52.65;98984.16;7307878;19;129174;-39
2022/06/08 01:40:20;;;;;;;42.85;3.85;;;;;;;24.04;53.64;98982.53;7310409;19;129654;-40
2022/06/08 01:43:24;;;;;;;25.33;2.58;;;;;;;24.09;54.18;98977.59;7306955;19;129105;-40
2022/06/08 01:46:04;;;;;;;44.90;4.28;;;;;;;24.10;53.53;98986.25;7309333;19;130331;-39
2022/06/08 01:48:45;;;;;;;32.65;3.30;;;;;;;24.10;52.58;98979.22;7308389;19;129442;-40
2022/06/08 01:51:25;;;;;;;28.48;2.90;;;;;;;24.11;54.31;98969.53;7309068;19;129251;-40
2022/06/08 01:54:07;;;;;;;22.17;2.20;;;;;;;24.12;54.58;98965.91;7305265;19;130252;-39
2022/06/08 01:56:52;;;;;;;34.55;3.33;;;;;;;24.12;53.83;98965.91;7310016;19;130973;-39
2022/06/08 01:59:25;;;;;;;41.83;4.03;;;;;;;24.12;54.50;98964.09;7308066;19;129717;-39
2022/06/08 02:01:59;;;;;;;32.00;3.20;;;;;;;24.10;53.43;98960.81;7308159;19;129997;-40
2022/06/08 02:04:35;;;;;;;50.08;4.68;;;;;;;23.88;51.01;98958.91;7307706;19;129868;-41
2022/06/08 02:07:17;;;;;;;45.78;4.25;;;;;;;23.64;50.20;98964.25;7308410;19;129503;-40
2022/06/08 02:09:54;;;;;;;29.15;2.88;;;;;;;23.63;49.86;98965.22;7309295;19;129404;-41
2022/06/08 02:12:20;;;;;;;;;;;;;;;23.62;49.02;98968.81;7306308;19;129810;-40
2022/06/08 02:15:16;;;;;;;20.80;2.15;;;;;;;23.79;52.58;98961.72;7310107;19;129240;-40
2022/06/08 02:17:57;;;;;;;32.13;3.33;;;;;;;23.91;53.14;98966.47;7308089;19;130677;-40
2022/06/08 02:20:30;;;;;;;23.20;2.78;;;;;;;23.91;53.07;98953.34;7309463;19;130442;-39
2022/06/08 02:23:02;;;;;;;18.67;2.17;;;;;;;23.99;52.79;98969.09;7310659;19;128979;-39
2022/06/08 02:25:33;;;;;;;51.75;5.10;;;;;;;24.03;52.35;98964.31;7308948;19;129269;-40
2022/06/08 02:28:08;;;;;;;24.42;2.33;;;;;;;24.04;53.78;98958.06;7308282;19;131179;-41
2022/06/08 02:30:41;;;;;;;66.50;5.97;;;;;;;24.05;53.35;98965.75;7307254;19;129251;-40
2022/06/08 02:36:06;;;;;;;23.45;2.28;;;;;;;24.10;53.11;98968.69;7308299;19;129176;-40
2022/06/08 02:38:40;;;;;;;32.13;3.13;;;;;;;24.13;54.25;98964.94;7305656;19;131236;-40
2022/06/08 02:41:11;;;;;;;27.43;2.77;;;;;;;24.12;53.40;98966.72;7305279;19;129336;-39
2022/06/08 02:43:49;;;;;;;41.08;3.97;;;;;;;24.13;54.61;98973.59;7307522;19;129443;-39
2022/06/08 02:46:15;;;;;;;35.65;3.47;;;;;;;24.13;53.52;98970.97;7309182;19;129951;-41
2022/06/08 02:48:40;;;;;;;56.73;5.23;;;;;;;23.72;50.08;98972.09;7305516;19;129762;-40
2022/06/08 02:51:06;;;;;;;29.23;3.07;;;;;;;23.63;49.88;98975.72;7306919;19;130285;-41
2022/06/08 02:53:32;;;;;;;33.53;3.07;;;;;;;23.62;49.14;98974.06;7309342;19;130637;-40
2022/06/08 02:56:22;;;;;;;43.17;3.70;;;;;;;23.66;49.10;98967.53;7306726;19;131694;-42
2022/06/08 02:58:47;;;;;;;45.58;4.22;;;;;;;23.82;50.72;98956.13;7304406;19;130150;-40
2022/06/08 03:01:19;;;;;;;44.03;4.20;;;;;;;23.93;52.46;98959.22;7304345;19;130965;-40
2022/06/08 03:03:52;;;;;;;32.92;3.55;;;;;;;23.88;53.52;98948.41;7307094;19;129067;-42
2022/06/08 03:06:30;;;;;;;31.67;3.30;;;;;;;24.01;53.78;98968.91;7311011;19;129235;-39
2022/06/08 03:08:59;;;;;;;38.15;3.65;;;;;;;24.01;52.56;98964.50;7314004;19;129532;-40
2022/06/08 03:11:30;;;;;;;37.33;3.17;;;;;;;24.06;53.03;98962.16;7309828;19;129434;-41
2022/06/08 03:14:01;;;;;;;43.75;3.90;;;;;;;24.09;52.27;98967.06;7310926;19;129180;-40
2022/06/08 03:16:39;;;;;;;28.30;2.95;;;;;;;24.12;53.54;98956.22;7312976;19;129666;-40
2022/06/08 03:19:05;;;;;;;54.58;4.97;;;;;;;24.13;52.48;98963.09;7310401;19;130591;-40
2022/06/08 03:21:30;;;;;;;9.07;1.50;;;;;;;24.14;52.51;98959.50;7314603;19;130148;-40
2022/06/08 03:23:56;;;;;;;16.98;1.80;;;;;;;24.06;53.06;98946.41;7312983;19;130168;-41
2022/06/08 03:26:24;;;;;;;14.53;1.93;;;;;;;24.13;52.96;98960.47;7312961;19;129940;-40
2022/06/08 03:28:49;;;;;;;26.33;2.95;;;;;;;24.13;52.62;98964.94;7313810;19;129071;-40
2022/06/08 03:31:15;;;;;;;54.47;5.00;;;;;;;23.82;50.92;98959.59;7311650;19;130287;-40
2022/06/08 03:33:41;;;;;;;12.37;1.87;;;;;;;23.61;49.79;98963.75;7313657;19;129090;-42
2022/06/08 03:36:07;;;;;;;39.80;4.00;;;;;;;23.64;49.79;98960.78;7312225;19;130978;-42
2022/06/08 03:38:33;;;;;;;34.58;3.33;;;;;;;23.66;49.47;98957.03;7312243;19;130177;-41
2022/06/08 03:40:59;;;;;;;30.67;2.73;;;;;;;23.86;50.74;98960.06;7313492;19;129775;-41
2022/06/08 03:43:24;;;;;;;37.10;3.60;;;;;;;23.92;51.44;98957.59;7314698;19;131430;-42
2022/06/08 03:45:57;;;;;;;57.20;5.28;;;;;;;23.99;53.31;98955.97;7312002;19;130080;-40
2022/06/08 03:48:23;;;;;;;44.42;4.10;;;;;;;24.02;52.45;98957.41;7313090;19;131418;-42
2022/06/08 03:50:51;;;;;;;30.83;3.05;;;;;;;23.96;52.34;98945.78;7312422;19;130299;-42
2022/06/08 03:53:21;;;;;;;43.20;4.15;;;;;;;24.02;52.79;98955.59;7311337;19;129446;-39
2022/06/08 03:55:50;;;;;;;42.97;4.55;;;;;;;24.11;52.70;98961.66;7309441;19;129976;-41
2022/06/08 03:58:16;;;;;;;49.30;4.57;;;;;;;24.10;52.33;98958.19;7308545;19;129376;-42
2022/06/08 04:00:42;;;;;;;26.50;2.70;;;;;;;24.14;52.69;98956.88;7313799;19;129692;-42
2022/06/08 04:03:09;;;;;;;62.53;5.53;;;;;;;24.14;52.46;98954.25;7311667;19;129105;-43
2022/06/08 04:05:35;;;;;;;31.05;3.08;;;;;;;24.14;52.53;98954.25;7308481;19;130131;-38
2022/06/08 04:08:01;;;;;;;28.17;2.92;;;;;;;24.16;53.51;98957.50;7309717;19;130418;-38
2022/06/08 04:10:26;;;;;;;44.73;4.27;;;;;;;24.05;53.31;98947.38;7307006;19;129827;-39
2022/06/08 04:12:52;;;;;;;3.78;1.10;;;;;;;24.14;52.31;98954.25;7310710;19;130191;-43
2022/06/08 04:18:02;;;;;;;40.08;3.67;;;;;;;23.65;49.55;98958.00;7308023;19;129841;-41
2022/06/08 04:20:27;;;;;;;19.87;2.33;;;;;;;23.66;49.62;98966.69;7311972;19;130292;-42
2022/06/08 04:22:53;;;;;;;58.27;4.90;;;;;;;23.65;49.52;98960.63;7308520;19;129573;-39
2022/06/08 04:25:18;;;;;;;41.70;4.07;;;;;;;23.93;50.73;98956.59;7309999;19;129077;-42
2022/06/08 04:27:43;;;;;;;35.63;3.23;;;;;;;23.89;50.98;98949.22;7310324;19;129481;-42
2022/06/08 04:30:09;;;;;;;65.03;5.57;;;;;;;24.00;51.43;98962.84;7306876;19;129290;-41
2022/06/08 04:32:35;;;;;;;13.90;1.73;;;;;;;24.03;51.78;98965.13;7309398;19;129738;-42
2022/06/08 04:35:00;;;;;;;31.00;3.00;;;;;;;24.07;52.62;98962.97;7309811;19;128920;-41
2022/06/08 04:37:27;;;;;;;50.92;4.72;;;;;;;24.08;52.63;98952.28;7308884;19;131412;-39
2022/06/08 04:39:52;;;;;;;43.25;3.83;;;;;;;24.11;52.94;98965.06;7309271;19;133411;-42
2022/06/08 04:42:18;;;;;;;37.53;3.63;;;;;;;24.10;52.66;98955.56;7306189;19;129261;-41
2022/06/08 04:44:43;;;;;;;23.47;2.37;;;;;;;24.13;52.93;98963.09;7310863;19;129816;-41
2022/06/08 04:47:10;;;;;;;39.90;3.80;;;;;;;24.12;52.96;98966.72;7308898;19;130230;-41
2022/06/08 04:49:35;;;;;;;32.30;3.05;;;;;;;24.17;51.86;98959.16;7309524;19;130436;-41
2022/06/08 04:52:01;;;;;;;33.77;3.27;;;;;;;24.09;52.34;98953.13;7306626;19;129285;-42
2022/06/08 04:54:27;;;;;;;27.30;2.63;;;;;;;24.15;53.10;98960.31;7307411;19;129676;-41
2022/06/08 04:56:52;;;;;;;33.42;3.03;;;;;;;24.14;52.41;98967.38;7308011;19;129379;-41
2022/06/08 04:59:18;;;;;;;22.38;2.33;;;;;;;23.64;50.13;98969.47;7305910;19;130428;-40
2022/06/08 05:01:43;;;;;;;31.83;3.40;;;;;;;23.56;49.93;98948.50;7307521;19;129101;-41
2022/06/08 05:04:08;;;;;;;33.13;3.33;;;;;;;23.64;49.19;98969.47;7308277;19;130541;-42
2022/06/08 05:06:34;;;;;;;51.72;4.72;;;;;;;23.78;50.36;98968.81;7310284;19;130115;-41
2022/06/08 05:08:59;;;;;;;36.45;3.15;;;;;;;23.89;51.02;98976.31;7307298;19;129627;-41
2022/06/08 05:11:25;;;;;;;38.43;3.50;;;;;;;23.95;52.04;98970.38;7306019;19;129137;-41
2022/06/08 05:13:50;;;;;;;32.53;3.27;;;;;;;23.99;52.04;98969.09;7308328;19;129387;-39
2022/06/08 05:16:16;;;;;;;39.10;3.53;;;;;;;24.05;52.79;98964.94;7308951;19;129303;-41
2022/06/08 05:18:41;;;;;;;31.47;3.00;;;;;;;24.09;52.19;98969.69;7303104;19;130491;-42
2022/06/08 05:21:07;;;;;;;72.63;5.80;;;;;;;24.11;52.29;98965.06;7304906;19;130810;-39
2022/06/08 05:23:36;;;;;;;36.30;3.88;;;;;;;24.12;52.69;98966.72;7305305;19;129389;-41
2022/06/08 05:26:02;;;;;;;34.63;3.67;;;;;;;24.14;52.62;98964.75;7310055;19;130224;-42
2022/06/08 05:28:28;;;;;;;29.40;2.97;;;;;;;24.12;53.22;98961.47;7307528;19;130845;-42
2022/06/08 05:30:56;;;;;;;30.65;3.13;;;;;;;24.11;53.19;98965.06;7308913;19;129479;-43
2022/06/08 05:33:24;;;;;;;24.80;2.28;;;;;;;24.12;52.92;98961.47;7308647;19;129100;-42
2022/06/08 05:35:50;;;;;;;65.13;6.18;;;;;;;24.14;52.20;98959.50;7308533;19;130966;-41
2022/06/08 05:38:15;;;;;;;25.87;2.50;;;;;;;24.13;52.00;98949.97;7307449;19;129735;-42
2022/06/08 05:40:40;;;;;;;50.72;4.80;;;;;;;23.73;49.98;98952.75;7307050;19;130341;-42
2022/06/08 05:43:08;;;;;;;41.55;3.92;;;;;;;23.65;49.78;98952.75;7306029;19;129474;-42
2022/06/08 05:45:34;;;;;;;32.50;3.33;;;;;;;23.66;49.26;98959.66;7308223;19;129717;-41
2022/06/08 05:48:01;;;;;;;29.05;3.15;;;;;;;23.65;48.99;98950.13;7308287;19;131572;-42
2022/06/08 05:50:27;;;;;;;;;;;;;;;23.97;53.18;98942.13;7305073;19;130499;-40
2022/06/08 05:52:53;;;;;;;36.90;3.85;;;;;;;23.96;51.27;98943.13;7303006;19;130395;-41
2022/06/08 05:55:20;;;;;;;30.07;2.97;;;;;;;24.00;51.98;98946.25;7307425;19;129744;-42
2022/06/08 05:57:46;;;;;;;39.63;3.63;;;;;;;24.02;52.09;98945.09;7304444;19;129221;-42
2022/06/08 06:00:16;;;;;;;55.40;5.07;;;;;;;24.05;53.14;98942.13;7307779;19;131501;-40
2022/06/08 06:02:42;;;;;;;43.00;4.38;;;;;;;24.08;52.01;98947.03;7293936;19;130621;-38
2022/06/08 06:05:09;;;;;;;186.15;16.23;;;;;;;24.10;52.66;98945.06;7283116;19;130756;-37
2022/06/08 06:07:35;;;;;;;25.50;2.90;;;;;;;24.12;52.14;98944.88;7305315;19;131005;-41
2022/06/08 06:10:03;;;;;;;62.70;5.93;;;;;;;24.14;52.86;98943.75;7305034;19;131341;-41
2022/06/08 06:12:29;;;;;;;24.52;2.60;;;;;;;24.14;51.91;98948.16;7308710;19;129339;-43
2022/06/08 06:14:55;;;;;;;39.67;4.20;;;;;;;24.13;52.77;98949.16;7308952;19;130422;-42
2022/06/08 06:17:20;;;;;;;33.20;3.40;;;;;;;24.13;52.94;98949.97;7307286;19;130381;-41
2022/06/08 06:19:46;;;;;;;112.90;9.70;;;;;;;24.14;52.08;98951.63;7303005;19;130629;-41
2022/06/08 06:22:11;;;;;;;34.83;3.45;;;;;;;24.14;53.33;98949.00;7304620;19;129557;-41
2022/06/08 06:24:36;;;;;;;63.47;5.93;;;;;;;23.66;49.41;98943.91;7308384;19;129454;-42
2022/06/08 06:27:03;;;;;;;56.72;5.03;;;;;;;23.62;49.70;98937.34;7306703;19;130372;-42
2022/06/08 06:29:29;;;;;;;51.88;4.53;;;;;;;23.63;48.82;98939.00;7302145;19;129655;-38
2022/06/08 06:31:58;;;;;;;40.03;3.60;;;;;;;23.73;50.18;98928.28;7304267;19;130950;-42
2022/06/08 06:34:26;;;;;;;26.65;3.00;;;;;;;23.89;51.63;98929.06;7304255;19;129525;-42
2022/06/08 06:36:53;;;;;;;21.25;2.35;;;;;;;23.95;51.56;98940.66;7306881;19;131072;-42
2022/06/08 06:39:20;;;;;;;44.80;4.28;;;;;;;23.96;52.55;98934.44;7299686;19;130157;-42
2022/06/08 06:41:46;;;;;;;;;;;;;;;24.10;53.78;98939.81;7308990;19;131253;-40
2022/06/08 06:44:12;;;;;;;48.38;4.72;;;;;;;24.09;52.21;98940.81;7310485;19;129601;-40
2022/06/08 06:46:37;;;;;;;42.03;4.13;;;;;;;24.13;52.36;98936.84;7311798;19;130263;-41
2022/06/08 06:49:03;;;;;;;40.83;3.83;;;;;;;24.06;52.29;98924.56;7311207;19;128854;-40
2022/06/08 06:51:28;;;;;;;21.33;2.37;;;;;;;24.13;51.72;98936.84;7310812;19;129346;-39
2022/06/08 06:53:54;;;;;;;15.05;1.77;;;;;;;24.17;52.25;98942.56;7313680;19;129366;-40
2022/06/08 06:56:20;;;;;;;73.43;6.43;;;;;;;24.16;52.26;98925.19;7312810;19;131381;-40
2022/06/08 06:58:48;;;;;;;24.30;2.70;;;;;;;24.15;52.85;98932.25;7311312;19;129782;-40
2022/06/08 07:01:14;;;;;;;34.40;3.90;;;;;;;24.13;52.78;98936.03;7311955;19;129073;-41
2022/06/08 07:03:40;;;;;;;25.40;2.85;;;;;;;24.15;52.60;98932.25;7313693;19;131274;-41
2022/06/08 07:06:05;;;;;;;19.30;2.13;;;;;;;23.71;50.70;98936.34;7313489;19;129205;-40
2022/06/08 07:08:31;;;;;;;23.58;2.80;;;;;;;23.63;49.96;98928.50;7315089;19;129717;-40
2022/06/08 07:13:57;;;;;;;18.90;2.13;;;;;;;23.77;50.57;98919.91;7309929;19;132274;-42
2022/06/08 07:16:23;;;;;;;47.42;4.68;;;;;;;23.88;51.99;98922.16;7311137;19;131473;-40
2022/06/08 07:18:48;;;;;;;29.10;3.35;;;;;;;23.95;52.04;98917.84;7313769;19;128734;-39
2022/06/08 07:21:13;;;;;;;28.07;2.90;;;;;;;24.00;51.32;98915.56;7313438;19;129698;-40
2022/06/08 07:23:41;;;;;;;21.67;2.77;;;;;;;24.03;52.67;98914.41;7311300;19;130366;-39
2022/06/08 07:26:06;;;;;;;28.20;3.28;;;;;;;24.04;52.40;98906.38;7314830;19;131139;-40
2022/06/08 07:28:32;;;;;;;68.93;6.03;;;;;;;24.08;53.11;98918.16;7312627;19;128954;-40
2022/06/08 07:30:57;;;;;;;25.48;2.75;;;;;;;24.11;52.54;98912.53;7313980;19;129114;-40
2022/06/08 07:33:23;;;;;;;39.55;3.70;;;;;;;24.14;52.62;98908.78;7312841;19;129403;-41
2022/06/08 07:35:48;;;;;;;53.47;4.93;;;;;;;24.13;52.44;98905.31;7312010;19;130556;-40
2022/06/08 07:38:14;;;;;;;33.35;3.28;;;;;;;24.14;51.95;98906.97;7313582;19;129183;-39
2022/06/08 07:40:40;;;;;;;48.27;4.40;;;;;;;24.12;52.46;98918.63;7311390;19;130235;-41
2022/06/08 07:43:05;;;;;;;31.40;3.03;;;;;;;24.15;52.71;98916.47;7314332;19;129569;-40
2022/06/08 07:45:31;;;;;;;51.17;4.78;;;;;;;24.15;52.33;98916.47;7312083;19;129280;-40
2022/06/08 07:50:41;;;;;;;72.13;6.50;;;;;;;23.63;49.78;98907.50;7310757;19;129558;-41
2022/06/08 07:53:07;;;;;;;28.75;3.08;;;;;;;23.65;49.42;98915.19;7309413;19;131199;-39
2022/06/08 07:55:32;;;;;;;49.27;4.70;;;;;;;23.61;49.66;98909.47;7312245;19;130306;-41
2022/06/08 07:57:58;;;;;;;32.40;3.10;;;;;;;23.89;50.74;98910.66;7310985;19;130921;-39
2022/06/08 08:00:24;;;;;;;11.50;1.73;;;;;;;23.96;51.41;98914.25;7314177;19;129356;-39
2022/06/08 08:02:49;;;;;;;49.50;4.78;;;;;;;23.98;51.88;98909.66;7307843;19;130470;-40
2022/06/08 08:05:16;;;;;;;29.42;2.97;;;;;;;24.02;52.12;98907.50;7313369;19;130509;-40
2022/06/08 08:07:42;;;;;;;;;;;;;;;24.12;53.62;98902.88;7312345;19;130047;-40
2022/06/08 08:10:13;;;;;;;36.72;3.78;;;;;;;24.09;52.72;98898.78;7313737;19;130002;-39
2022/06/08 08:12:38;;;;;;;60.13;5.70;;;;;;;24.07;52.24;98895.50;7311498;19;130136;-40
2022/06/08 08:15:05;;;;;;;34.67;3.27;;;;;;;24.08;52.67;98897.13;7314223;19;130722;-39
2022/06/08 08:17:30;;;;;;;85.22;7.63;;;;;;;24.07;51.93;98894.69;7313770;19;132155;-40
2022/06/08 08:19:55;;;;;;;33.40;3.80;;;;;;;24.10;52.02;98895.16;7310581;19;131165;-39
2022/06/08 08:22:21;;;;;;;21.57;2.53;;;;;;;24.09;52.94;98896.16;7312723;19;130338;-40
2022/06/08 08:24:47;;;;;;;25.70;2.63;;;;;;;24.09;52.88;98898.78;7315039;19;131096;-39
2022/06/08 08:27:13;;;;;;;26.97;2.70;;;;;;;24.11;52.70;98888.91;7314384;19;129521;-39
2022/06/08 08:29:40;;;;;;;38.20;3.53;;;;;;;24.08;53.05;98899.75;7315184;19;128809;-39
2022/06/08 08:32:07;;;;;;;54.63;5.10;;;;;;;23.65;50.11;98900.25;7311580;19;130211;-41
2022/06/08 08:34:32;;;;;;;22.45;2.47;;;;;;;23.55;49.42;98889.13;7314050;19;130334;-39
2022/06/08 08:36:58;;;;;;;53.77;4.97;;;;;;;23.64;49.24;98900.41;7311920;19;130157;-41
2022/06/08 08:39:24;;;;;;;21.17;2.78;;;;;;;23.74;49.93;98893.16;7312353;19;130357;-39
2022/06/08 08:44:47;;;;;;;24.80;2.55;;;;;;;23.97;53.13;98897.50;7315541;19;129774;-40
2022/06/08 08:47:16;;;;;;;27.48;2.72;;;;;;;24.00;52.38;98894.56;7314938;19;129070;-40
2022/06/08 08:50:10;;;;;;;47.33;4.07;;;;;;;24.03;54.07;98885.53;7313036;19;128804;-40
2022/06/08 08:52:48;;;;;;;25.73;2.72;;;;;;;24.03;54.16;98896.84;7310388;19;129628;-40
2022/06/08 08:55:24;;;;;;;44.40;4.10;;;;;;;24.04;53.50;98888.00;7311056;19;130269;-41
2022/06/08 08:58:19;;;;;;;31.85;3.15;;;;;;;24.08;53.97;98891.88;7311100;19;131994;-41
2022/06/08 09:00:49;;;;;;;17.50;2.13;;;;;;;24.08;52.64;98878.75;7314697;19;129027;-39
2022/06/08 09:03:21;;;;;;;29.05;2.83;;;;;;;24.07;53.34;98877.13;7312563;19;129666;-40
2022/06/08 09:05:49;;;;;;;50.05;4.63;;;;;;;24.10;52.95;98868.91;7311050;19;129503;-40
2022/06/08 09:08:17;;;;;;;53.05;4.93;;;;;;;24.10;52.30;98868.06;7308801;19;130066;-40
2022/06/08 09:10:44;;;;;;;41.22;3.90;;;;;;;24.11;53.66;98873.16;7311348;19;129384;-41
2022/06/08 09:13:21;;;;;;;45.38;4.10;;;;;;;23.76;49.72;98870.19;7312035;19;129682;-40
2022/06/08 09:15:54;;;;;;;25.95;2.60;;;;;;;23.63;49.74;98869.94;7313019;19;129294;-39
2022/06/08 09:18:19;;;;;;;28.77;2.65;;;;;;;23.61;49.90;98862.22;7311333;19;128762;-40
2022/06/08 09:20:45;;;;;;;28.42;3.03;;;;;;;23.63;48.71;98855.00;7313238;19;129174;-41
2022/06/08 09:23:28;;;;;;;28.37;2.70;;;;;;;23.86;52.13;98850.63;7312690;19;130867;-41
2022/06/08 09:26:15;;;;;;;30.42;2.95;;;;;;;23.90;53.10;98846.66;7312655;19;129683;-40
2022/06/08 09:28:41;;;;;;;36.42;3.35;;;;;;;23.87;51.54;98838.31;7313801;19;129268;-41
2022/06/08 09:31:33;;;;;;;23.47;3.00;;;;;;;24.00;53.77;98857.81;7311753;19;129417;-39
2022/06/08 09:34:07;;;;;;;41.05;4.13;;;;;;;24.03;53.40;98849.56;7309397;19;130956;-39
2022/06/08 09:36:32;;;;;;;25.05;2.60;;;;;;;24.05;52.74;98850.22;7311800;19;130232;-39
2022/06/08 09:38:58;;;;;;;24.10;2.37;;;;;;;24.06;53.05;98846.63;7311641;19;129311;-40
2022/06/08 09:41:58;;;;;;;31.23;3.13;;;;;;;24.12;54.70;98848.53;7309599;19;129452;-39
2022/06/08 09:44:29;;;;;;;10.05;1.65;;;;;;;24.09;53.53;98848.06;7311833;19;130273;-40
2022/06/08 09:54:04;;;;;;;55.58;4.85;;;;;;;24.11;54.17;98846.88;7307692;19;128929;-40
2022/06/08 09:57:08;;;;;;;20.42;2.10;;;;;;;23.68;50.39;98847.44;7309838;19;128966;-40
2022/06/08 09:59:55;;;;;;;21.85;2.30;;;;;;;23.60;49.90;98844.03;7309274;19;130383;-40
2022/06/08 10:02:29;;;;;;;31.50;2.93;;;;;;;23.58;48.86;98831.09;7308421;19;129071;-40
2022/06/08 10:05:01;;;;;;;9.93;1.42;;;;;;;23.75;50.85;98837.88;7312358;19;129307;-40
2022/06/08 10:07:47;;;;;;;20.45;2.15;;;;;;;23.90;52.86;98828.28;7310857;19;129439;-42
2022/06/08 10:10:27;;;;;;;33.35;3.15;;;;;;;23.94;53.69;98841.88;7313973;19;130749;-40
2022/06/08 10:13:01;;;;;;;25.35;2.42;;;;;;;23.96;52.69;98835.50;7305871;19;131188;-40
2022/06/08 10:15:49;;;;;;;30.02;2.55;;;;;;;24.00;54.15;98836.78;7309815;19;129095;-41
2022/06/08 10:18:14;;;;;;;37.95;3.53;;;;;;;24.02;52.09;98820.84;7309190;19;130948;-42
2022/06/08 10:20:49;;;;;;;21.37;2.37;;;;;;;23.96;53.65;98811.84;7308933;19;129195;-41
2022/06/08 10:23:27;;;;;;;37.22;3.78;;;;;;;24.07;53.88;98829.88;7309663;19;130749;-39
2022/06/08 10:26:17;;;;;;;33.42;3.28;;;;;;;24.07;53.55;98816.72;7310501;19;129041;-39
2022/06/08 10:28:48;;;;;;;72.60;6.03;;;;;;;24.08;52.95;98818.34;7306571;19;130691;-39
2022/06/08 10:31:42;;;;;;;37.00;3.40;;;;;;;24.09;54.67;98825.25;7309279;19;130360;-41
2022/06/08 10:34:17;;;;;;;11.40;1.63;;;;;;;23.99;53.66;98803.66;7311487;19;129035;-41
2022/06/08 10:36:46;;;;;;;21.98;2.38;;;;;;;24.09;52.85;98813.94;7310428;19;129210;-39
2022/06/08 10:39:13;;;;;;;23.58;2.38;;;;;;;23.74;51.05;98803.94;7307701;19;130221;-40
2022/06/08 10:44:49;;;;;;;27.70;2.50;;;;;;;23.55;49.27;98786.00;7311791;19;128807;-40
2022/06/08 10:47:16;;;;;;;34.25;3.25;;;;;;;23.62;49.36;98800.88;7310714;19;128717;-39
2022/06/08 10:49:45;;;;;;;35.38;3.03;;;;;;;23.88;51.53;98797.97;7309982;19;130731;-40
2022/06/08 10:52:20;;;;;;;37.35;3.38;;;;;;;23.90;53.18;98788.91;7309184;19;130315;-39
2022/06/08 10:54:57;;;;;;;26.55;2.58;;;;;;;23.92;53.14;98791.34;7308010;19;130488;-40
2022/06/08 10:57:42;;;;;;;25.20;2.38;;;;;;;23.99;53.41;98787.06;7310522;19;128919;-38
2022/06/08 11:00:19;;;;;;;31.75;3.10;;;;;;;24.02;53.76;98787.56;7304387;19;130300;-39
2022/06/08 11:03:01;;;;;;;26.15;2.67;;;;;;;24.04;53.75;98790.00;7308969;19;131212;-41
2022/06/08 11:05:40;;;;;;;12.07;1.52;;;;;;;24.06;52.76;98788.84;7310658;19;129014;-40
2022/06/08 11:08:15;;;;;;;28.42;2.83;;;;;;;24.06;53.06;98788.84;7309049;19;129177;-39
2022/06/08 11:10:53;;;;;;;33.22;3.13;;;;;;;24.06;52.99;98788.84;7305940;19;130412;-41
2022/06/08 11:13:24;;;;;;;33.92;3.20;;;;;;;24.06;53.09;98780.97;7306238;19;130557;-43
2022/06/08 11:15:50;;;;;;;34.72;3.20;;;;;;;24.07;52.77;98779.13;7309692;19;129233;-40
2022/06/08 11:18:37;;;;;;;19.50;1.90;;;;;;;24.07;53.94;98774.72;7309614;19;128897;-39
2022/06/08 11:21:14;;;;;;;19.97;2.17;;;;;;;23.82;50.74;98767.97;7306843;19;131025;-40
2022/06/08 11:23:42;;;;;;;26.10;2.38;;;;;;;23.61;50.06;98765.13;7308488;19;130195;-39
2022/06/08 11:26:19;;;;;;;36.00;3.30;;;;;;;23.59;49.76;98764.50;7308614;19;128813;-39
2022/06/08 11:28:48;;;;;;;22.73;2.13;;;;;;;23.64;49.83;98756.91;7315773;19;129084;-42
2022/06/08 11:31:26;;;;;;;49.10;4.40;;;;;;;23.85;51.87;98751.84;7312874;19;131246;-39
2022/06/08 11:34:09;;;;;;;19.98;1.92;;;;;;;23.91;51.36;98755.59;7316526;19;131364;-41
2022/06/08 11:36:59;;;;;;;25.63;2.38;;;;;;;23.95;52.80;98744.56;7317417;19;129922;-39
2022/06/08 11:39:46;;;;;;;18.02;1.85;;;;;;;23.99;54.36;98740.63;7316828;19;129668;-39
2022/06/08 11:42:22;;;;;;;63.95;5.57;;;;;;;23.95;53.32;98723.56;7312990;19;129490;-40
2022/06/08 11:45:04;;;;;;;23.00;2.15;;;;;;;24.03;53.38;98736.66;7316662;19;130584;-40
2022/06/08 11:47:33;;;;;;;22.65;2.17;;;;;;;24.06;52.63;98727.63;7316458;19;129147;-40
2022/06/08 11:50:16;;;;;;;39.58;3.58;;;;;;;24.10;54.05;98723.63;7315715;19;129564;-40
2022/06/08 11:52:44;;;;;;;35.13;3.20;;;;;;;24.08;52.64;98723.03;7312132;19;132317;-40
2022/06/08 11:55:19;;;;;;;33.95;3.20;;;;;;;24.06;53.24;98723.19;7314880;19;131460;-39
2022/06/08 11:57:53;;;;;;;26.05;2.35;;;;;;;24.06;54.33;98722.38;7315385;19;129371;-40
2022/06/08 12:00:26;;;;;;;23.08;2.03;;;;;;;24.06;52.83;98715.31;7313892;19;129369;-40